sensor_id;sensor_type;location;lat;lon;timestamp;pressure;altitude;pressure_sealevel;temperature;humidity
42125;BME280;27787;44.594;11.046;2023-05-22T00:00:25;100749.94;;;18.57;90.78
42125;BME280;27787;44.594;11.046;2023-05-22T00:03:09;100746.41;;;18.55;90.60
42125;BME280;27787;44.594;11.046;2023-05-22T00:05:54;100753.59;;;18.53;90.84
42125;BME280;27787;44.594;11.046;2023-05-22T00:08:41;100749.13;;;18.54;91.14
42125;BME280;27787;44.594;11.046;2023-05-22T00:11:25;100758.16;;;18.48;90.82
42125;BME280;27787;44.594;11.046;2023-05-22T00:14:10;100760.84;;;18.48;91.27
42125;BME280;27787;44.594;11.046;2023-05-22T00:16:56;100762.78;;;18.43;91.20
42125;BME280;27787;44.594;11.046;2023-05-22T00:19:41;100759.34;;;18.38;91.05
42125;BME280;27787;44.594;11.046;2023-05-22T00:22:24;100770.09;;;18.35;91.32
42125;BME280;27787;44.594;11.046;2023-05-22T00:25:11;100773.75;;;18.31;91.22
42125;BME280;27787;44.594;11.046;2023-05-22T00:27:55;100774.81;;;18.25;91.46
42125;BME280;27787;44.594;11.046;2023-05-22T00:30:39;100770.34;;;18.26;91.20
42125;BME280;27787;44.594;11.046;2023-05-22T00:33:23;100762.28;;;18.27;91.10
42125;BME280;27787;44.594;11.046;2023-05-22T00:36:08;100764.06;;;18.27;91.04
42125;BME280;27787;44.594;11.046;2023-05-22T00:38:52;100762.34;;;18.24;90.67
42125;BME280;27787;44.594;11.046;2023-05-22T00:41:36;100760.81;;;18.14;91.03
42125;BME280;27787;44.594;11.046;2023-05-22T00:44:21;100768.16;;;18.05;91.79
42125;BME280;27787;44.594;11.046;2023-05-22T00:47:06;100765.56;;;18.02;92.58
42125;BME280;27787;44.594;11.046;2023-05-22T00:49:50;100756.63;;;18.03;92.54
42125;BME280;27787;44.594;11.046;2023-05-22T00:52:37;100754.66;;;18.11;92.57
42125;BME280;27787;44.594;11.046;2023-05-22T00:55:23;100745.56;;;18.18;91.95
42125;BME280;27787;44.594;11.046;2023-05-22T00:58:09;100735.78;;;18.18;91.32
42125;BME280;27787;44.594;11.046;2023-05-22T01:00:55;100744.00;;;18.09;92.04
42125;BME280;27787;44.594;11.046;2023-05-22T01:03:40;100738.78;;;18.05;92.59
42125;BME280;27787;44.594;11.046;2023-05-22T01:06:28;100737.94;;;18.03;92.88
42125;BME280;27787;44.594;11.046;2023-05-22T01:09:15;100737.91;;;18.04;92.94
42125;BME280;27787;44.594;11.046;2023-05-22T01:12:05;100736.09;;;18.05;92.16
42125;BME280;27787;44.594;11.046;2023-05-22T01:15:06;100746.06;;;17.96;92.80
42125;BME280;27787;44.594;11.046;2023-05-22T01:21:07;100750.69;;;17.90;93.60
42125;BME280;27787;44.594;11.046;2023-05-22T01:24:34;100752.38;;;17.94;93.83
42125;BME280;27787;44.594;11.046;2023-05-22T01:33:21;100751.41;;;17.96;92.81
42125;BME280;27787;44.594;11.046;2023-05-22T01:36:09;100748.88;;;17.92;93.04
42125;BME280;27787;44.594;11.046;2023-05-22T01:38:57;100749.03;;;17.86;92.96
42125;BME280;27787;44.594;11.046;2023-05-22T01:41:43;100748.19;;;17.82;93.34
42125;BME280;27787;44.594;11.046;2023-05-22T01:44:28;100743.00;;;17.76;94.24
42125;BME280;27787;44.594;11.046;2023-05-22T01:47:13;100757.38;;;17.69;94.62
42125;BME280;27787;44.594;11.046;2023-05-22T01:49:57;100745.88;;;17.65;94.94
42125;BME280;27787;44.594;11.046;2023-05-22T01:56:23;100750.38;;;17.63;95.41
42125;BME280;27787;44.594;11.046;2023-05-22T01:59:31;100748.66;;;17.61;95.09
42125;BME280;27787;44.594;11.046;2023-05-22T02:02:18;100746.91;;;17.60;95.56
42125;BME280;27787;44.594;11.046;2023-05-22T02:05:04;100753.16;;;17.57;95.87
42125;BME280;27787;44.594;11.046;2023-05-22T02:07:49;100753.13;;;17.60;96.29
42125;BME280;27787;44.594;11.046;2023-05-22T02:10:35;100760.22;;;17.61;95.79
42125;BME280;27787;44.594;11.046;2023-05-22T02:13:21;100754.06;;;17.58;95.92
42125;BME280;27787;44.594;11.046;2023-05-22T02:16:05;100754.94;;;17.57;96.53
42125;BME280;27787;44.594;11.046;2023-05-22T02:18:50;100758.50;;;17.59;96.49
42125;BME280;27787;44.594;11.046;2023-05-22T02:21:37;100754.94;;;17.58;96.38
42125;BME280;27787;44.594;11.046;2023-05-22T02:24:21;100750.44;;;17.60;96.51
42125;BME280;27787;44.594;11.046;2023-05-22T02:27:06;100752.22;;;17.60;96.51
42125;BME280;27787;44.594;11.046;2023-05-22T02:29:50;100753.16;;;17.59;96.66
42125;BME280;27787;44.594;11.046;2023-05-22T02:32:35;100755.81;;;17.59;96.37
42125;BME280;27787;44.594;11.046;2023-05-22T02:35:20;100754.06;;;17.58;96.42
42125;BME280;27787;44.594;11.046;2023-05-22T02:38:04;100763.81;;;17.57;96.69
42125;BME280;27787;44.594;11.046;2023-05-22T02:40:49;100756.69;;;17.59;96.37
42125;BME280;27787;44.594;11.046;2023-05-22T02:43:33;100754.91;;;17.60;96.25
42125;BME280;27787;44.594;11.046;2023-05-22T02:46:18;100762.06;;;17.58;96.30
42125;BME280;27787;44.594;11.046;2023-05-22T02:49:02;100759.50;;;17.52;96.77
42125;BME280;27787;44.594;11.046;2023-05-22T02:51:47;100763.03;;;17.54;97.18
42125;BME280;27787;44.594;11.046;2023-05-22T02:54:31;100760.38;;;17.52;97.35
42125;BME280;27787;44.594;11.046;2023-05-22T02:57:15;100763.16;;;17.48;97.70
42125;BME280;27787;44.594;11.046;2023-05-22T03:00:00;100765.03;;;17.43;97.54
42125;BME280;27787;44.594;11.046;2023-05-22T03:02:44;100760.75;;;17.35;98.08
42125;BME280;27787;44.594;11.046;2023-05-22T03:05:29;100766.16;;;17.31;98.62
42125;BME280;27787;44.594;11.046;2023-05-22T03:08:14;100770.69;;;17.27;98.64
42125;BME280;27787;44.594;11.046;2023-05-22T03:11:00;100770.72;;;17.26;98.94
42125;BME280;27787;44.594;11.046;2023-05-22T03:13:44;100775.28;;;17.21;99.33
42125;BME280;27787;44.594;11.046;2023-05-22T03:16:29;100764.69;;;17.16;99.46
42125;BME280;27787;44.594;11.046;2023-05-22T03:19:14;100764.75;;;17.13;99.99
42125;BME280;27787;44.594;11.046;2023-05-22T03:21:59;100755.88;;;17.13;100.00
42125;BME280;27787;44.594;11.046;2023-05-22T03:24:43;100758.56;;;17.11;100.00
42125;BME280;27787;44.594;11.046;2023-05-22T03:27:28;100764.75;;;17.13;100.00
42125;BME280;27787;44.594;11.046;2023-05-22T03:30:12;100758.59;;;17.09;99.83
42125;BME280;27787;44.594;11.046;2023-05-22T03:33:01;100765.72;;;17.09;100.00
42125;BME280;27787;44.594;11.046;2023-05-22T03:35:46;100758.66;;;17.05;99.62
42125;BME280;27787;44.594;11.046;2023-05-22T03:38:30;100770.38;;;16.98;99.80
42125;BME280;27787;44.594;11.046;2023-05-22T03:41:14;100774.94;;;16.93;100.00
42125;BME280;27787;44.594;11.046;2023-05-22T03:43:58;100780.31;;;16.90;100.00
42125;BME280;27787;44.594;11.046;2023-05-22T03:46:43;100775.03;;;16.87;100.00
42125;BME280;27787;44.594;11.046;2023-05-22T03:49:27;100775.06;;;16.85;100.00
42125;BME280;27787;44.594;11.046;2023-05-22T03:52:11;100772.34;;;16.88;100.00
42125;BME280;27787;44.594;11.046;2023-05-22T03:54:55;100771.50;;;16.86;100.00
42125;BME280;27787;44.594;11.046;2023-05-22T03:57:39;100766.16;;;16.86;100.00
42125;BME280;27787;44.594;11.046;2023-05-22T04:00:23;100770.56;;;16.87;100.00
42125;BME280;27787;44.594;11.046;2023-05-22T04:03:07;100770.59;;;16.86;100.00
42125;BME280;27787;44.594;11.046;2023-05-22T04:05:55;100776.84;;;16.85;100.00
42125;BME280;27787;44.594;11.046;2023-05-22T04:08:40;100779.59;;;16.82;100.00
42125;BME280;27787;44.594;11.046;2023-05-22T04:11:24;100772.47;;;16.82;100.00
42125;BME280;27787;44.594;11.046;2023-05-22T04:14:08;100780.50;;;16.79;100.00
42125;BME280;27787;44.594;11.046;2023-05-22T04:16:53;100776.09;;;16.76;100.00
42125;BME280;27787;44.594;11.046;2023-05-22T04:19:37;100790.38;;;16.74;100.00
42125;BME280;27787;44.594;11.046;2023-05-22T04:22:22;100781.50;;;16.73;100.00
42125;BME280;27787;44.594;11.046;2023-05-22T04:25:07;100793.84;;;16.77;100.00
42125;BME280;27787;44.594;11.046;2023-05-22T04:27:51;100790.31;;;16.77;99.92
42125;BME280;27787;44.594;11.046;2023-05-22T04:30:36;100788.47;;;16.79;100.00
42125;BME280;27787;44.594;11.046;2023-05-22T04:33:22;100796.44;;;16.84;100.00
42125;BME280;27787;44.594;11.046;2023-05-22T04:36:09;100805.34;;;16.83;99.50
42125;BME280;27787;44.594;11.046;2023-05-22T04:38:54;100807.97;;;16.84;99.80
42125;BME280;27787;44.594;11.046;2023-05-22T04:41:39;100804.38;;;16.85;99.44
42125;BME280;27787;44.594;11.046;2023-05-22T04:44:23;100807.00;;;16.88;99.26
42125;BME280;27787;44.594;11.046;2023-05-22T04:47:09;100806.06;;;16.91;99.30
42125;BME280;27787;44.594;11.046;2023-05-22T04:49:57;100807.75;;;16.96;99.20
42125;BME280;27787;44.594;11.046;2023-05-22T04:52:43;100813.91;;;17.00;99.23
42125;BME280;27787;44.594;11.046;2023-05-22T04:55:27;100812.97;;;17.02;98.52
42125;BME280;27787;44.594;11.046;2023-05-22T04:58:12;100811.13;;;17.04;98.99
42125;BME280;27787;44.594;11.046;2023-05-22T05:00:56;100817.28;;;17.09;99.08
42125;BME280;27787;44.594;11.046;2023-05-22T05:03:42;100820.78;;;17.13;99.50
42125;BME280;27787;44.594;11.046;2023-05-22T05:06:27;100815.38;;;17.16;99.94
42125;BME280;27787;44.594;11.046;2023-05-22T05:09:12;100817.13;;;17.17;99.71
42125;BME280;27787;44.594;11.046;2023-05-22T05:11:57;100821.53;;;17.18;100.00
42125;BME280;27787;44.594;11.046;2023-05-22T05:14:41;100829.56;;;17.18;100.00
42125;BME280;27787;44.594;11.046;2023-05-22T05:17:25;100825.97;;;17.21;100.00
42125;BME280;27787;44.594;11.046;2023-05-22T05:20:09;100826.00;;;17.18;100.00
42125;BME280;27787;44.594;11.046;2023-05-22T05:22:57;100827.78;;;17.17;100.00
42125;BME280;27787;44.594;11.046;2023-05-22T05:25:41;100825.09;;;17.19;100.00
42125;BME280;27787;44.594;11.046;2023-05-22T05:28:26;100824.22;;;17.18;100.00
42125;BME280;27787;44.594;11.046;2023-05-22T05:31:11;100822.44;;;17.19;100.00
42125;BME280;27787;44.594;11.046;2023-05-22T05:34:27;100832.94;;;17.28;100.00
42125;BME280;27787;44.594;11.046;2023-05-22T05:37:18;100826.56;;;17.36;100.00
42125;BME280;27787;44.594;11.046;2023-05-22T05:40:03;100822.88;;;17.42;100.00
42125;BME280;27787;44.594;11.046;2023-05-22T05:42:50;100822.81;;;17.47;100.00
42125;BME280;27787;44.594;11.046;2023-05-22T05:45:40;100822.72;;;17.50;100.00
42125;BME280;27787;44.594;11.046;2023-05-22T05:48:27;100828.00;;;17.53;100.00
42125;BME280;27787;44.594;11.046;2023-05-22T05:51:11;100830.59;;;17.56;100.00
42125;BME280;27787;44.594;11.046;2023-05-22T05:53:59;100839.47;;;17.58;100.00
42125;BME280;27787;44.594;11.046;2023-05-22T05:56:44;100834.09;;;17.59;100.00
42125;BME280;27787;44.594;11.046;2023-05-22T05:59:28;100845.59;;;17.63;100.00
42125;BME280;27787;44.594;11.046;2023-05-22T06:02:43;100834.91;;;17.63;100.00
42125;BME280;27787;44.594;11.046;2023-05-22T06:05:43;100836.59;;;17.68;100.00
42125;BME280;27787;44.594;11.046;2023-05-22T06:08:37;100842.72;;;17.75;100.00
42125;BME280;27787;44.594;11.046;2023-05-22T06:11:21;100848.88;;;17.77;100.00
42125;BME280;27787;44.594;11.046;2023-05-22T06:14:11;100848.81;;;17.80;100.00
42125;BME280;27787;44.594;11.046;2023-05-22T06:16:55;100857.63;;;17.84;100.00
42125;BME280;27787;44.594;11.046;2023-05-22T06:19:39;100858.50;;;17.86;100.00
42125;BME280;27787;44.594;11.046;2023-05-22T06:22:25;100859.44;;;17.85;100.00
42125;BME280;27787;44.594;11.046;2023-05-22T06:25:10;100866.44;;;17.89;100.00
42125;BME280;27787;44.594;11.046;2023-05-22T06:27:55;100872.56;;;17.94;100.00
42125;BME280;27787;44.594;11.046;2023-05-22T06:30:40;100863.59;;;17.98;100.00
42125;BME280;27787;44.594;11.046;2023-05-22T06:33:28;100857.22;;;18.04;100.00
42125;BME280;27787;44.594;11.046;2023-05-22T06:36:12;100857.09;;;18.10;100.00
42125;BME280;27787;44.594;11.046;2023-05-22T06:38:56;100857.88;;;18.15;100.00
42125;BME280;27787;44.594;11.046;2023-05-22T06:42:10;100852.38;;;18.21;100.00
42125;BME280;27787;44.594;11.046;2023-05-22T06:45:13;100855.84;;;18.26;100.00
42125;BME280;27787;44.594;11.046;2023-05-22T06:48:11;100858.31;;;18.34;100.00
42125;BME280;27787;44.594;11.046;2023-05-22T06:51:07;100859.16;;;18.37;100.00
42125;BME280;27787;44.594;11.046;2023-05-22T06:53:56;100857.25;;;18.42;100.00
42125;BME280;27787;44.594;11.046;2023-05-22T06:56:45;100849.16;;;18.45;100.00
42125;BME280;27787;44.594;11.046;2023-05-22T06:59:33;100850.81;;;18.51;100.00
42125;BME280;27787;44.594;11.046;2023-05-22T07:02:23;100857.72;;;18.60;100.00
42125;BME280;27787;44.594;11.046;2023-05-22T07:05:28;100849.56;;;18.67;100.00
42125;BME280;27787;44.594;11.046;2023-05-22T07:08:17;100849.44;;;18.72;100.00
42125;BME280;27787;44.594;11.046;2023-05-22T07:11:02;100856.41;;;18.79;100.00
42125;BME280;27787;44.594;11.046;2023-05-22T07:13:49;100859.88;;;18.82;100.00
42125;BME280;27787;44.594;11.046;2023-05-22T07:16:34;100855.25;;;18.89;99.67
42125;BME280;27787;44.594;11.046;2023-05-22T07:19:21;100858.75;;;18.91;98.65
42125;BME280;27787;44.594;11.046;2023-05-22T07:22:06;100862.09;;;18.99;97.75
42125;BME280;27787;44.594;11.046;2023-05-22T07:24:54;100856.53;;;19.08;96.55
42125;BME280;27787;44.594;11.046;2023-05-22T07:27:40;100855.47;;;19.14;93.76
42125;BME280;27787;44.594;11.046;2023-05-22T07:30:24;100867.75;;;19.23;93.47
42125;BME280;27787;44.594;11.046;2023-05-22T07:33:08;100866.81;;;19.24;93.29
42125;BME280;27787;44.594;11.046;2023-05-22T07:35:53;100865.84;;;19.26;92.24
42125;BME280;27787;44.594;11.046;2023-05-22T07:38:38;100862.19;;;19.30;90.36
42125;BME280;27787;44.594;11.046;2023-05-22T07:41:21;100861.13;;;19.36;90.52
42125;BME280;27787;44.594;11.046;2023-05-22T07:44:07;100864.66;;;19.38;88.52
42125;BME280;27787;44.594;11.046;2023-05-22T07:46:54;100874.28;;;19.45;88.80
42125;BME280;27787;44.594;11.046;2023-05-22T07:49:40;100859.84;;;19.51;89.30
42125;BME280;27787;44.594;11.046;2023-05-22T07:52:24;100867.66;;;19.60;89.66
42125;BME280;27787;44.594;11.046;2023-05-22T07:55:10;100870.28;;;19.61;86.15
42125;BME280;27787;44.594;11.046;2023-05-22T07:57:56;100865.03;;;19.58;85.26
42125;BME280;27787;44.594;11.046;2023-05-22T08:00:49;100863.13;;;19.62;85.31
42125;BME280;27787;44.594;11.046;2023-05-22T08:03:33;100860.34;;;19.66;84.52
42125;BME280;27787;44.594;11.046;2023-05-22T08:06:18;100851.19;;;19.73;84.30
42125;BME280;27787;44.594;11.046;2023-05-22T08:09:02;100851.91;;;19.79;84.16
42125;BME280;27787;44.594;11.046;2023-05-22T08:11:50;100854.47;;;19.83;84.02
42125;BME280;27787;44.594;11.046;2023-05-22T08:14:34;100844.53;;;19.87;83.66
42125;BME280;27787;44.594;11.046;2023-05-22T08:17:18;100847.00;;;19.94;84.36
42125;BME280;27787;44.594;11.046;2023-05-22T08:20:02;100843.09;;;20.04;82.25
42125;BME280;27787;44.594;11.046;2023-05-22T08:22:47;100843.91;;;20.08;81.37
42125;BME280;27787;44.594;11.046;2023-05-22T08:25:32;100843.47;;;20.22;81.91
42125;BME280;27787;44.594;11.046;2023-05-22T08:28:16;100834.50;;;20.23;80.77
42125;BME280;27787;44.594;11.046;2023-05-22T08:31:01;100837.97;;;20.26;81.12
42125;BME280;27787;44.594;11.046;2023-05-22T08:33:46;100838.66;;;20.33;80.08
42125;BME280;27787;44.594;11.046;2023-05-22T08:36:30;100831.50;;;20.33;79.46
42125;BME280;27787;44.594;11.046;2023-05-22T08:39:16;100830.75;;;20.28;79.21
42125;BME280;27787;44.594;11.046;2023-05-22T08:42:01;100827.34;;;20.23;79.38
42125;BME280;27787;44.594;11.046;2023-05-22T08:44:46;100829.00;;;20.27;79.34
42125;BME280;27787;44.594;11.046;2023-05-22T08:47:33;100829.00;;;20.27;79.65
42125;BME280;27787;44.594;11.046;2023-05-22T08:50:19;100829.47;;;20.40;80.31
42125;BME280;27787;44.594;11.046;2023-05-22T08:53:06;100819.63;;;20.41;79.71
42125;BME280;27787;44.594;11.046;2023-05-22T08:55:52;100833.56;;;20.53;80.42
42125;BME280;27787;44.594;11.046;2023-05-22T08:58:36;100824.22;;;20.65;80.42
42125;BME280;27787;44.594;11.046;2023-05-22T09:01:21;100832.22;;;20.67;79.92
42125;BME280;27787;44.594;11.046;2023-05-22T09:04:05;100837.94;;;20.82;77.98
42125;BME280;27787;44.594;11.046;2023-05-22T09:06:50;100828.25;;;20.78;79.07
42125;BME280;27787;44.594;11.046;2023-05-22T09:09:38;100834.66;;;20.74;79.39
42125;BME280;27787;44.594;11.046;2023-05-22T09:12:24;100836.41;;;20.75;79.83
42125;BME280;27787;44.594;11.046;2023-05-22T09:15:09;100822.94;;;20.77;79.27
42125;BME280;27787;44.594;11.046;2023-05-22T09:17:54;100815.78;;;20.77;79.77
42125;BME280;27787;44.594;11.046;2023-05-22T09:20:39;100821.81;;;20.84;80.65
42125;BME280;27787;44.594;11.046;2023-05-22T09:23:26;100806.56;;;20.86;80.86
42125;BME280;27787;44.594;11.046;2023-05-22T09:26:10;100811.84;;;20.87;80.01
42125;BME280;27787;44.594;11.046;2023-05-22T09:28:55;100821.56;;;20.91;77.59
42125;BME280;27787;44.594;11.046;2023-05-22T09:31:42;100818.44;;;21.04;77.38
42125;BME280;27787;44.594;11.046;2023-05-22T09:34:30;100809.25;;;21.11;76.30
42125;BME280;27787;44.594;11.046;2023-05-22T09:37:16;100811.66;;;21.18;79.03
42125;BME280;27787;44.594;11.046;2023-05-22T09:40:05;100813.13;;;21.29;75.36
42125;BME280;27787;44.594;11.046;2023-05-22T09:42:49;100822.66;;;21.37;76.77
42125;BME280;27787;44.594;11.046;2023-05-22T09:45:35;100822.47;;;21.42;75.22
42125;BME280;27787;44.594;11.046;2023-05-22T09:48:19;100812.50;;;21.45;74.39
42125;BME280;27787;44.594;11.046;2023-05-22T09:51:05;100818.69;;;21.47;73.88
42125;BME280;27787;44.594;11.046;2023-05-22T09:53:49;100814.97;;;21.52;74.31
42125;BME280;27787;44.594;11.046;2023-05-22T09:56:35;100812.91;;;21.58;74.03
42125;BME280;27787;44.594;11.046;2023-05-22T09:59:22;100804.16;;;21.53;74.63
42125;BME280;27787;44.594;11.046;2023-05-22T10:02:10;100792.75;;;21.46;75.00
42125;BME280;27787;44.594;11.046;2023-05-22T10:04:56;100800.47;;;21.56;77.28
42125;BME280;27787;44.594;11.046;2023-05-22T10:07:46;100797.47;;;21.65;76.58
42125;BME280;27787;44.594;11.046;2023-05-22T10:10:35;100797.09;;;21.74;76.32
42125;BME280;27787;44.594;11.046;2023-05-22T10:13:20;100791.38;;;21.83;73.99
42125;BME280;27787;44.594;11.046;2023-05-22T10:16:05;100795.41;;;21.95;71.44
42125;BME280;27787;44.594;11.046;2023-05-22T10:18:51;100794.88;;;22.08;70.18
42125;BME280;27787;44.594;11.046;2023-05-22T10:21:38;100797.28;;;22.16;68.14
42125;BME280;27787;44.594;11.046;2023-05-22T10:24:24;100794.75;;;22.12;69.08
42125;BME280;27787;44.594;11.046;2023-05-22T10:27:08;100790.44;;;22.07;69.60
42125;BME280;27787;44.594;11.046;2023-05-22T10:30:12;100786.25;;;21.99;70.89
42125;BME280;27787;44.594;11.046;2023-05-22T10:33:24;100781.66;;;22.02;71.54
42125;BME280;27787;44.594;11.046;2023-05-22T10:36:18;100784.06;;;22.10;72.38
42125;BME280;27787;44.594;11.046;2023-05-22T10:39:39;100783.25;;;22.08;72.45
42125;BME280;27787;44.594;11.046;2023-05-22T10:42:14;100785.75;;;22.13;72.01
42125;BME280;27787;44.594;11.046;2023-05-22T10:45:02;100781.22;;;22.15;71.95
42125;BME280;27787;44.594;11.046;2023-05-22T10:47:47;100785.31;;;22.23;69.13
42125;BME280;27787;44.594;11.046;2023-05-22T10:50:33;100787.84;;;22.28;70.50
42125;BME280;27787;44.594;11.046;2023-05-22T10:53:25;100789.75;;;22.24;70.49
42125;BME280;27787;44.594;11.046;2023-05-22T10:56:12;100787.28;;;22.20;69.86
42125;BME280;27787;44.594;11.046;2023-05-22T10:58:59;100772.69;;;22.25;68.93
42125;BME280;27787;44.594;11.046;2023-05-22T11:01:45;100791.53;;;22.47;70.05
42125;BME280;27787;44.594;11.046;2023-05-22T11:04:38;100774.66;;;22.64;67.28
42125;BME280;27787;44.594;11.046;2023-05-22T11:07:22;100772.81;;;22.66;66.95
42125;BME280;27787;44.594;11.046;2023-05-22T11:10:06;100769.41;;;22.61;65.64
42125;BME280;27787;44.594;11.046;2023-05-22T11:13:12;100766.88;;;22.58;67.46
42125;BME280;27787;44.594;11.046;2023-05-22T11:15:57;100762.06;;;22.64;67.48
42125;BME280;27787;44.594;11.046;2023-05-22T11:18:41;100762.03;;;22.66;68.30
42125;BME280;27787;44.594;11.046;2023-05-22T11:21:28;100768.22;;;22.68;69.67
42125;BME280;27787;44.594;11.046;2023-05-22T11:24:15;100756.00;;;22.81;66.53
42125;BME280;27787;44.594;11.046;2023-05-22T11:27:03;100748.78;;;22.82;67.23
42125;BME280;27787;44.594;11.046;2023-05-22T11:29:48;100746.25;;;22.79;69.19
42125;BME280;27787;44.594;11.046;2023-05-22T11:32:37;100740.97;;;22.76;69.37
42125;BME280;27787;44.594;11.046;2023-05-22T11:35:21;100747.50;;;22.70;67.98
42125;BME280;27787;44.594;11.046;2023-05-22T11:38:06;100736.88;;;22.67;65.17
42125;BME280;27787;44.594;11.046;2023-05-22T11:40:50;100742.13;;;22.70;66.21
42125;BME280;27787;44.594;11.046;2023-05-22T11:43:35;100743.78;;;22.73;65.44
42125;BME280;27787;44.594;11.046;2023-05-22T11:46:19;100742.50;;;22.83;65.57
42125;BME280;27787;44.594;11.046;2023-05-22T11:49:04;100746.00;;;22.85;66.73
42125;BME280;27787;44.594;11.046;2023-05-22T11:51:48;100740.53;;;22.86;67.71
42125;BME280;27787;44.594;11.046;2023-05-22T11:54:33;100738.97;;;22.81;66.90
42125;BME280;27787;44.594;11.046;2023-05-22T11:57:18;100738.31;;;22.96;63.92
42125;BME280;27787;44.594;11.046;2023-05-22T12:00:04;100730.25;;;22.96;64.73
42125;BME280;27787;44.594;11.046;2023-05-22T12:02:57;100739.28;;;22.95;66.23
42125;BME280;27787;44.594;11.046;2023-05-22T12:05:44;100736.56;;;22.95;65.23
42125;BME280;27787;44.594;11.046;2023-05-22T12:08:29;100722.16;;;22.96;65.57
42125;BME280;27787;44.594;11.046;2023-05-22T12:11:13;100715.56;;;23.03;64.52
42125;BME280;27787;44.594;11.046;2023-05-22T12:14:04;100721.19;;;23.17;64.47
42125;BME280;27787;44.594;11.046;2023-05-22T12:16:50;100716.25;;;23.27;64.38
42125;BME280;27787;44.594;11.046;2023-05-22T12:19:38;100709.59;;;23.36;66.00
42125;BME280;27787;44.594;11.046;2023-05-22T12:22:23;100709.09;;;23.46;61.96
42125;BME280;27787;44.594;11.046;2023-05-22T12:25:18;100707.47;;;23.42;63.16
42125;BME280;27787;44.594;11.046;2023-05-22T12:28:05;100706.91;;;23.36;63.90
42125;BME280;27787;44.594;11.046;2023-05-22T12:30:53;100712.50;;;23.31;64.78
42125;BME280;27787;44.594;11.046;2023-05-22T12:33:38;100702.00;;;23.25;65.59
42125;BME280;27787;44.594;11.046;2023-05-22T12:36:39;100704.63;;;23.27;65.54
42125;BME280;27787;44.594;11.046;2023-05-22T12:39:23;100703.47;;;23.32;65.81
42125;BME280;27787;44.594;11.046;2023-05-22T12:42:08;100701.59;;;23.34;66.19
42125;BME280;27787;44.594;11.046;2023-05-22T12:44:53;100704.66;;;23.45;65.60
42125;BME280;27787;44.594;11.046;2023-05-22T12:47:37;100711.94;;;23.81;61.03
42125;BME280;27787;44.594;11.046;2023-05-22T12:50:22;100704.28;;;23.91;60.69
42125;BME280;27787;44.594;11.046;2023-05-22T12:53:06;100703.06;;;23.98;61.27
42125;BME280;27787;44.594;11.046;2023-05-22T12:55:50;100697.59;;;23.99;63.24
42125;BME280;27787;44.594;11.046;2023-05-22T12:58:35;100696.91;;;23.94;63.91
42125;BME280;27787;44.594;11.046;2023-05-22T13:01:19;100700.66;;;23.92;63.14
42125;BME280;27787;44.594;11.046;2023-05-22T13:04:04;100699.13;;;23.86;63.04
42125;BME280;27787;44.594;11.046;2023-05-22T13:06:48;100695.69;;;23.82;62.67
42125;BME280;27787;44.594;11.046;2023-05-22T13:09:32;100697.00;;;23.93;63.78
42125;BME280;27787;44.594;11.046;2023-05-22T13:12:16;100696.09;;;24.11;62.06
42125;BME280;27787;44.594;11.046;2023-05-22T13:15:01;100676.03;;;24.35;62.09
42125;BME280;27787;44.594;11.046;2023-05-22T13:17:46;100685.28;;;24.47;61.90
42125;BME280;27787;44.594;11.046;2023-05-22T13:20:30;100676.97;;;24.52;62.41
42125;BME280;27787;44.594;11.046;2023-05-22T13:23:14;100678.72;;;24.53;62.39
42125;BME280;27787;44.594;11.046;2023-05-22T13:25:58;100677.06;;;24.50;59.93
42125;BME280;27787;44.594;11.046;2023-05-22T13:28:44;100671.00;;;24.45;60.19
42125;BME280;27787;44.594;11.046;2023-05-22T13:31:28;100670.06;;;24.46;60.19
42125;BME280;27787;44.594;11.046;2023-05-22T13:34:14;100669.25;;;24.44;60.17
42125;BME280;27787;44.594;11.046;2023-05-22T13:36:58;100661.47;;;24.55;60.62
42125;BME280;27787;44.594;11.046;2023-05-22T13:39:43;100658.53;;;24.60;61.15
42125;BME280;27787;44.594;11.046;2023-05-22T13:42:27;100670.78;;;24.67;61.49
42125;BME280;27787;44.594;11.046;2023-05-22T13:45:11;100660.13;;;24.64;57.88
42125;BME280;27787;44.594;11.046;2023-05-22T13:47:55;100656.34;;;24.51;56.91
42125;BME280;27787;44.594;11.046;2023-05-22T13:50:40;100652.38;;;24.40;56.35
42125;BME280;27787;44.594;11.046;2023-05-22T13:53:24;100653.72;;;24.49;56.65
42125;BME280;27787;44.594;11.046;2023-05-22T13:56:08;100645.84;;;24.62;57.99
42125;BME280;27787;44.594;11.046;2023-05-22T13:58:52;100647.66;;;24.79;58.17
42125;BME280;27787;44.594;11.046;2023-05-22T14:01:38;100645.78;;;24.96;58.64
42125;BME280;27787;44.594;11.046;2023-05-22T14:04:22;100637.59;;;24.98;58.43
42125;BME280;27787;44.594;11.046;2023-05-22T14:07:06;100638.25;;;24.86;58.79
42125;BME280;27787;44.594;11.046;2023-05-22T14:09:50;100632.78;;;24.87;57.87
42125;BME280;27787;44.594;11.046;2023-05-22T14:12:34;100631.22;;;24.99;57.38
42125;BME280;27787;44.594;11.046;2023-05-22T14:15:18;100625.53;;;25.05;56.27
42125;BME280;27787;44.594;11.046;2023-05-22T14:18:02;100627.22;;;25.23;54.83
42125;BME280;27787;44.594;11.046;2023-05-22T14:20:46;100620.78;;;25.42;54.45
42125;BME280;27787;44.594;11.046;2023-05-22T14:23:31;100620.59;;;25.61;54.35
42125;BME280;27787;44.594;11.046;2023-05-22T14:26:15;100611.88;;;25.87;54.33
42125;BME280;27787;44.594;11.046;2023-05-22T14:29:00;100611.53;;;25.93;52.96